Dennis, Mississippi
Current Conditions -  °F | °C
As of 8:15 AM on Monday 24 Nov 2014 (Local Time) from KCRX Reporting Station
Overcast Overcast  
Wind Chill: 52°   Ceiling: 2700
Heat Index: 52°   Visibility: 10mi
Dew Point: 43°   Wind: 15mph
Humidity: 71%   Direction: 270°W
Pressure: 29.78"   Gusts: 29mph
Location:  34.56°N, 88.23°W
Report Text: KCRX 241415Z AUTO 27013G25KT 10SM OVC027 11/06 A2978 RMK AO2
Loading
Personal Weather Stations






























Interactive Weather Map New forecast layout! Learn more

10-Day Weather Forecast

Advertisements
Track Severe Weather on mobile